Pagina principale
METAR-TAF:

METAR-TAF

Aeroporti :

Pontoise, Francia

latitudine: 49-05-48N, longitudine: 002-02-27E, altezza: 99 m

Osservazione

Il bollettino è stato emesso 16 minuti fa, alle 05:30 UTC
Vento 8 kt da ovest/nord-ovest
Temperature 4°C
Umidità 87%
Pressione 1011 hPa
Visibilità 10 km o più
Poco nuvoloso ad un'altezza di 1800 ft
Nuvoloso ad un'altezza di 3600 ft

METAR: LFPT 180530Z AUTO 30008KT 9999 FEW018 BKN036 04/02 Q1011

Ora: 06:46 (05:46 UTC)


TAF: mancante

Osservazioni e previsioni meteorologiche di più di 4000 aeroporti (messaggi METAR e TAF).

Le stazioni disponibili sono rappresentate dai dischi gialli e rossi sulla carta.

Puntare il mouse per vedere il nome della stazione.

Clicca sopra per visualizzare le osservazioni e previsioni meteorologiche.

Per cambiare la mappa : fare clic sui pulsanti verdi con una croce nera per ingrandire, il pulsante verde con un trattino per diminuire, o sulla freccia verde per le mappe adiacenti.


METAR-TAF: